Login

Results   

NoName  1 2 3 4 5 6 7 8 9101112131415161718+/-Sum  
  Par43333333333334333356
Damen (6)  1 2 3 4 5 6 7 8 9101112131415161718+/-Sum  
1Jutta Wenner07/03/22 10:00534454244443333344+1066  
  07/03/22 13:00534444234333343334+662+16128
2Sylvia Lotze07/03/22 10:00464453344435453344+1672  
  07/03/22 13:00544343353433353334+965+25137
3Angela Podschwatke07/03/22 10:00554544443344454343+1672  
  07/03/22 13:00434554444434343332+1066+26138
3Jessica Wunder07/03/22 10:00554453344423653333+1369  
  07/03/22 13:00544345343454453342+1369+26138
5Marion Wolf07/03/22 10:00434453434633353354+1369  
  07/03/22 13:00544544434573543342+1773+30142
6Meile-Andrea Schröder07/03/22 10:00644454434443453444+1773  
  07/03/22 13:00655456454444553344+2480+41153
Open (26)  1 2 3 4 5 6 7 8 9101112131415161718+/-Sum  
1Tobias Meyer zu Düttingdorf07/03/22 10:00332332343323426332-254  
  07/03/22 13:00332433323423322333-551-7105
2Maximilian Lorenz07/03/22 10:00443333333342233333-155  
  07/03/22 13:00333332232333253332-551-6106
3Hape Bruns07/03/22 10:00433334323333342322-353  
  07/03/22 13:00434433333332342332-155-4108
4Christoph Himmerich07/03/22 10:00423442233333344222-353  
  07/03/22 13:00534334333332334333+258-1111
5Ralf Scheipers07/03/22 10:00334353333333333222-254  
  07/03/22 13:00443434233333333343+2580112
6Matthias Himmerich07/03/22 10:00434333332334442333+157  
  07/03/22 13:00343342343333433323056+1113
7Jan Suhrheinrich07/03/22 10:00333332323433432223-551  
  07/03/22 13:00433462434433435424+965+4116
8Jörn von Louisenthal07/03/22 10:00443432343333343332+157  
  07/03/22 13:00434334433333632333+460+5117
9Jan Sauthof07/03/22 10:00433452344334432334+561  
  07/03/22 13:00333442344434442323+359+8120
10Jens Spiegelberg07/03/22 10:00544333243335333332+359  
  07/03/22 13:00433452243333743333+662+9121
11Jan Ackerhans07/03/22 10:00434356433344453324+1167+1167
11Armin Sebrantke07/03/22 10:00534446333433443332+864  
  07/03/22 13:00533343333433343333+359+11123
13Jürgen Ackemann07/03/22 10:00434453434343353333+864  
  07/03/22 13:00434453343333343332+460+12124
14Johann Höptner07/03/22 10:00443544334445333324+965  
  07/03/22 13:00433354333423343433+460+13125
15Roland Lang07/03/22 10:00434345333343543332+662  
  07/03/22 13:00544354333333453334+965+15127
16Waldemar Eziner07/03/22 10:00544433434444343332+864  
  07/03/22 13:00443353344343633342+864+16128
17Klaus siegeroth07/03/22 10:00544444343434344333+1066  
  07/03/22 13:00443353234334463333+763+17129
17Rüdiger Lotze07/03/22 10:00544344343444433333+965  
  07/03/22 13:00444344335343433334+864+17129
19René Westermann07/03/22 10:00545344345434443332+1167  
  07/03/22 13:00444444343333443243+763+18130
20Heiko Weinandt07/03/22 10:00433363324335433323+460  
  07/03/22 13:00443464444445643446+2177+25137
20Dietmar Dalka07/03/22 10:00634364343424264335+1369  
  07/03/22 13:00534543343332444554+1268+25137
22Tobias Schürmann07/03/22 10:00444353344445443335+1369  
  07/03/22 13:00444454343434463533+1470+27139
23Hanns-J. Gerlach07/03/22 10:00534555433443554343+1672  
  07/03/22 13:00443444444433644433+1369+29141
24Marc-Andre Schulze07/03/22 10:00554455444446354432+1975  
  07/03/22 13:00445444343434563432+1369+32144
25Jonathan Schuermann07/03/22 10:00574453344434565637+2682  
  07/03/22 13:00544455353454353433+1672+42154
26Daniel Schuermann07/03/22 10:00555555365565464435+3086  
  07/03/22 13:00555645456544474464+3187+61173
Einsteiger*innen (6)  1 2 3 4 5 6 7 8 9101112131415161718+/-Sum  
1Matt Brundell07/03/22 10:00434453344424454235+1167  
  07/03/22 13:00433432333444353452+662+17129
2Joachim Lorenz07/03/22 10:00545455443534544533+1975+1975
3Simon Precht07/03/22 10:00554543453345454534+1975  
  07/03/22 13:00544534434443443345+1470+33145
4Mathias Blaha07/03/22 10:00544454255434552245+1672  
  07/03/22 13:00534374554355463334+2076+36148
5Sebastian Tomczak07/03/22 10:00554565443534543335+2076  
  07/03/22 13:00554454353556453342+1975+39151
6Kerstin Griess07/03/22 10:00554465445555643345+2682  
  07/03/22 13:00765466454545654445+3389+59171

Herzlich Willkommen zur diesjährigen Trilogy Challenge 2022, in Bielefeld

Trilogy Challenge 2022 präsentiert von Jan "JD" und TuS Ost Bielefeld

 

Wir bedanken uns bei unseren Freunden von TuS Ost Bielefeld, dass wir diesen tollen Parcours nutzen dürfen!

Die Trilogy Challenge ist Deine Möglichkeit den Disc Golf Sport zu entdecken. Dynamic Discs, Latitude 64° und Westside Discs präsentieren diese Turnierform im Jahr 2022 zum neunten Mal. Ziel ist es, unseren geliebten Sport bekannter zu machen und neue Spieler zu gewinnen. Der große Vorteil der Trilogy Challenge liegt darin, dass du für deine Startgebühr alles bekommst, was du für dieses Turnier zum Spielen benötigst.

 

Im Players Pack enthalten:

 

• Dynamic Discs Prime Burst Agent (Speed: 2 Glide: 3 Turn: 0 Fade: 1)

• Westside Discs VIP Ice Tursas (Speed: 5 Glide: 5 Turn: -2 Fade: 1)

• Latitude 64 Gold Burst Saint (Speed: 9 Glide: 7 Turn: -1 Fade: 2)

• Trilogy Challenge Mini Marker

• Trilogy Challenge Handtuch

 

 

 

Du musst während des Events die 3 Scheiben benutzen, die du mit deinem Players Pack erhältst. Falls eine Scheibe verloren geht, musst du die Runde ohne sie zu Ende spielen.

 

Anmeldung:

https://discgolfmetrix.com/2134721

 

Startgebühr pro Teilnehmer: 35€

Geöffnet bis: 12.06.2022 23:59

 

Du bleibst auf der Warteliste bis deine Startgebühr eingegangen ist.

Die Reihenfolge, wie die Startplätze vergeben werden, ist primär davon abhängig, wann das Geld bei uns eingegangen ist und sekundär wann der Spieler sich angemeldet hat.

 

Teilnahme- und Durchführungsbedingungen

Anmeldungen, die bis zum 18.06.2022 nicht bezahlt sind, verfallen.

Das Players Pack ist in der Startgebühr inbegriffen. Sprich, Ihr bekommt für nur 35€ das gesamte Players Pack und einen kompletten Tag in bester Ostwestfalen-Luft mit einer Menge Spaß! - Die Startgebühr muss im Voraus bezahlt werden, da wir die PP auch im Voraus beim Hersteller bezahlen müssen.

Sollte das Turnier nicht stattfinden bevor wir die PP bezahlt und bestellt haben, wird das Geld wieder zurück überwiesen.

Sollte das Turnier nicht stattfinden nachdem die PP von uns bestellt und bezahlt wurden, werden die Player-Packs auf die kostengünstigste Weise an die Spieler überbracht. Wenn eine Überbringung nicht möglich ist, bekommt Ihr euer PP per DHL zugesandt.

Sollte sich ein Spieler wieder Abmelden nachdem die PP gekauft wurden und sein Startplatz kann nicht mit einem anderen Spieler aufgefüllt werden, wird die Startgebühr von uns einbehalten. Er kann sich jedoch innerhalb von 30 Tagen nach dem Turnierende, das PP gegen eine Unkosten-Pauschale von 5€ zusenden lassen, oder bei uns abholen. Der Spieler muss uns selbstständig alle notwendigen Informationen bereitstellen, damit wir ohne großen Aufwand die PP versenden können. Auch hier gilt: Versand erst nach Geldeingang.

Sollte ein Spieler nicht zum Turnier erscheinen, gilt die gleiche Regel wie beim Abmelden nachdem wir die Player Packs bestellt haben.

 

Spielklassen / Divisionen:

 

Open: Alle Spieler, die nicht in die nachfolgenden Divisionen fallen, oder sich freiwillig für die Open Division anmelden

 

Beginner: Als Beginner zählen alle Spieler, die weniger als 6 Monate spielen und maximal an einem (1) Anfänger-Turnier teilgenommen haben.

 

U18: kommt nur bei ausreichender Anzahl an Junioren zustande

 

Damen: Sollte klar sein :)

 

Turnierformat, Bahnänderungen und Spieleranzahl.

Die Spieleranzahl wird auf mindestens 25 festgelegt. 

Gespielt wird im Singles Format, Shot Gun Start, 2 * 18 Bahnen für alle Spieler*innen


Hole-by-hole statistics

View: Grouped chart | Detailed chart | Table

Free discgolfmetrix.com is used


 User statistics 
 | 
 Show presenter
 | 
Show pdf 

Results will be updated every 30 seconds!

Share

What would you like to share?